sensor_id;sensor_type;location;lat;lon;timestamp;temperature;humidity
16327;DHT22;34812;49.846;9.610;2022-09-02T00:01:00;16.20;99.90
16327;DHT22;34812;49.846;9.610;2022-09-02T00:02:02;16.20;99.90
16327;DHT22;34812;49.846;9.610;2022-09-02T00:03:04;16.10;99.90
16327;DHT22;34812;49.846;9.610;2022-09-02T00:04:07;16.10;99.90
16327;DHT22;34812;49.846;9.610;2022-09-02T00:05:09;16.10;99.90
16327;DHT22;34812;49.846;9.610;2022-09-02T00:06:11;16.10;99.90
16327;DHT22;34812;49.846;9.610;2022-09-02T00:07:14;16.00;99.90
16327;DHT22;34812;49.846;9.610;2022-09-02T00:08:15;16.00;99.90
16327;DHT22;34812;49.846;9.610;2022-09-02T00:09:21;16.00;99.90
16327;DHT22;34812;49.846;9.610;2022-09-02T00:10:23;16.00;99.90
16327;DHT22;34812;49.846;9.610;2022-09-02T00:11:26;15.90;99.90
16327;DHT22;34812;49.846;9.610;2022-09-02T00:12:28;15.90;99.90
16327;DHT22;34812;49.846;9.610;2022-09-02T00:13:29;15.90;99.90
16327;DHT22;34812;49.846;9.610;2022-09-02T00:14:33;15.90;99.90
16327;DHT22;34812;49.846;9.610;2022-09-02T00:15:35;15.80;99.90
16327;DHT22;34812;49.846;9.610;2022-09-02T00:16:36;15.80;99.90
16327;DHT22;34812;49.846;9.610;2022-09-02T00:17:38;15.80;99.90
16327;DHT22;34812;49.846;9.610;2022-09-02T00:18:39;15.80;99.90
16327;DHT22;34812;49.846;9.610;2022-09-02T00:19:41;15.80;99.90
16327;DHT22;34812;49.846;9.610;2022-09-02T00:20:45;15.80;99.90
16327;DHT22;34812;49.846;9.610;2022-09-02T00:21:47;15.80;99.90
16327;DHT22;34812;49.846;9.610;2022-09-02T00:22:50;15.80;99.90
16327;DHT22;34812;49.846;9.610;2022-09-02T00:23:51;15.80;99.90
16327;DHT22;34812;49.846;9.610;2022-09-02T00:24:53;15.80;99.90
16327;DHT22;34812;49.846;9.610;2022-09-02T00:25:54;15.80;99.90
16327;DHT22;34812;49.846;9.610;2022-09-02T00:26:56;15.70;99.90
16327;DHT22;34812;49.846;9.610;2022-09-02T00:27:57;15.70;99.90
16327;DHT22;34812;49.846;9.610;2022-09-02T00:28:59;15.70;99.90
16327;DHT22;34812;49.846;9.610;2022-09-02T00:30:01;15.70;99.90
16327;DHT22;34812;49.846;9.610;2022-09-02T00:31:02;15.70;99.90
16327;DHT22;34812;49.846;9.610;2022-09-02T00:32:03;15.70;99.90
16327;DHT22;34812;49.846;9.610;2022-09-02T00:33:06;15.70;99.90
16327;DHT22;34812;49.846;9.610;2022-09-02T00:34:07;15.70;99.90
16327;DHT22;34812;49.846;9.610;2022-09-02T00:35:10;15.70;99.90
16327;DHT22;34812;49.846;9.610;2022-09-02T00:36:11;15.70;99.90
16327;DHT22;34812;49.846;9.610;2022-09-02T00:37:13;15.60;99.90
16327;DHT22;34812;49.846;9.610;2022-09-02T00:38:16;15.60;99.90
16327;DHT22;34812;49.846;9.610;2022-09-02T00:39:17;15.50;99.90
16327;DHT22;34812;49.846;9.610;2022-09-02T00:40:18;15.50;99.90
16327;DHT22;34812;49.846;9.610;2022-09-02T00:41:22;15.40;99.90
16327;DHT22;34812;49.846;9.610;2022-09-02T00:42:24;15.40;99.90
16327;DHT22;34812;49.846;9.610;2022-09-02T00:43:39;15.40;99.90
16327;DHT22;34812;49.846;9.610;2022-09-02T00:44:40;15.30;99.90
16327;DHT22;34812;49.846;9.610;2022-09-02T00:45:42;15.20;99.90
16327;DHT22;34812;49.846;9.610;2022-09-02T00:46:43;15.20;99.90
16327;DHT22;34812;49.846;9.610;2022-09-02T00:47:45;15.20;99.90
16327;DHT22;34812;49.846;9.610;2022-09-02T00:48:48;15.10;99.90
16327;DHT22;34812;49.846;9.610;2022-09-02T00:49:53;15.00;99.90
16327;DHT22;34812;49.846;9.610;2022-09-02T00:50:54;15.00;99.90
16327;DHT22;34812;49.846;9.610;2022-09-02T00:51:58;14.90;99.90
16327;DHT22;34812;49.846;9.610;2022-09-02T00:53:05;14.90;99.90
16327;DHT22;34812;49.846;9.610;2022-09-02T00:54:11;14.80;99.90
16327;DHT22;34812;49.846;9.610;2022-09-02T00:55:18;14.80;99.90
16327;DHT22;34812;49.846;9.610;2022-09-02T00:56:22;14.70;99.90
16327;DHT22;34812;49.846;9.610;2022-09-02T00:57:30;14.70;99.90
16327;DHT22;34812;49.846;9.610;2022-09-02T00:58:33;14.60;99.90
16327;DHT22;34812;49.846;9.610;2022-09-02T00:59:42;14.60;99.90
16327;DHT22;34812;49.846;9.610;2022-09-02T01:00:46;14.50;99.90
16327;DHT22;34812;49.846;9.610;2022-09-02T01:01:48;14.50;99.90
16327;DHT22;34812;49.846;9.610;2022-09-02T01:02:52;14.40;99.90
16327;DHT22;34812;49.846;9.610;2022-09-02T01:03:54;14.40;99.90
16327;DHT22;34812;49.846;9.610;2022-09-02T01:04:56;14.40;99.90
16327;DHT22;34812;49.846;9.610;2022-09-02T01:05:58;14.30;99.90
16327;DHT22;34812;49.846;9.610;2022-09-02T01:07:00;14.30;99.90
16327;DHT22;34812;49.846;9.610;2022-09-02T01:08:03;14.30;99.90
16327;DHT22;34812;49.846;9.610;2022-09-02T01:09:11;14.20;99.90
16327;DHT22;34812;49.846;9.610;2022-09-02T01:10:16;14.20;99.90
16327;DHT22;34812;49.846;9.610;2022-09-02T01:11:17;14.20;99.90
16327;DHT22;34812;49.846;9.610;2022-09-02T01:12:20;14.20;99.90
16327;DHT22;34812;49.846;9.610;2022-09-02T01:13:25;14.10;99.90
16327;DHT22;34812;49.846;9.610;2022-09-02T01:14:26;14.10;99.90
16327;DHT22;34812;49.846;9.610;2022-09-02T01:15:28;14.00;99.90
16327;DHT22;34812;49.846;9.610;2022-09-02T01:16:38;14.00;99.90
16327;DHT22;34812;49.846;9.610;2022-09-02T01:17:42;13.90;99.90
16327;DHT22;34812;49.846;9.610;2022-09-02T01:18:48;13.90;99.90
16327;DHT22;34812;49.846;9.610;2022-09-02T01:19:52;13.80;99.90
16327;DHT22;34812;49.846;9.610;2022-09-02T01:20:55;13.80;99.90
16327;DHT22;34812;49.846;9.610;2022-09-02T01:21:57;13.80;99.90
16327;DHT22;34812;49.846;9.610;2022-09-02T01:22:59;13.70;99.90
16327;DHT22;34812;49.846;9.610;2022-09-02T01:24:02;13.60;99.90
16327;DHT22;34812;49.846;9.610;2022-09-02T01:25:06;13.50;99.90
16327;DHT22;34812;49.846;9.610;2022-09-02T01:26:07;13.50;99.90
16327;DHT22;34812;49.846;9.610;2022-09-02T01:27:13;13.40;99.90
16327;DHT22;34812;49.846;9.610;2022-09-02T01:28:16;13.30;99.90
16327;DHT22;34812;49.846;9.610;2022-09-02T01:29:18;13.30;99.90
16327;DHT22;34812;49.846;9.610;2022-09-02T01:30:21;13.20;99.90
16327;DHT22;34812;49.846;9.610;2022-09-02T01:31:23;13.20;99.90
16327;DHT22;34812;49.846;9.610;2022-09-02T01:32:25;13.10;99.90
16327;DHT22;34812;49.846;9.610;2022-09-02T01:33:27;13.10;99.90
16327;DHT22;34812;49.846;9.610;2022-09-02T01:34:28;13.00;99.90
16327;DHT22;34812;49.846;9.610;2022-09-02T01:35:30;13.00;99.90
16327;DHT22;34812;49.846;9.610;2022-09-02T01:36:31;13.00;99.90
16327;DHT22;34812;49.846;9.610;2022-09-02T01:37:34;12.90;99.90
16327;DHT22;34812;49.846;9.610;2022-09-02T01:38:34;12.90;99.90
16327;DHT22;34812;49.846;9.610;2022-09-02T01:39:36;12.80;99.90
16327;DHT22;34812;49.846;9.610;2022-09-02T01:40:38;12.90;99.90
16327;DHT22;34812;49.846;9.610;2022-09-02T01:41:40;12.80;99.90
16327;DHT22;34812;49.846;9.610;2022-09-02T01:42:42;12.80;99.90
16327;DHT22;34812;49.846;9.610;2022-09-02T01:43:44;12.80;99.90
16327;DHT22;34812;49.846;9.610;2022-09-02T01:44:45;12.70;99.90
16327;DHT22;34812;49.846;9.610;2022-09-02T01:45:48;12.80;99.90
16327;DHT22;34812;49.846;9.610;2022-09-02T01:46:49;12.70;99.90
16327;DHT22;34812;49.846;9.610;2022-09-02T01:47:51;12.70;99.90
16327;DHT22;34812;49.846;9.610;2022-09-02T01:48:52;12.70;99.90
16327;DHT22;34812;49.846;9.610;2022-09-02T01:49:53;12.70;99.90
16327;DHT22;34812;49.846;9.610;2022-09-02T01:50:57;12.70;99.90
16327;DHT22;34812;49.846;9.610;2022-09-02T01:51:59;12.60;99.90
16327;DHT22;34812;49.846;9.610;2022-09-02T01:53:01;12.60;99.90
16327;DHT22;34812;49.846;9.610;2022-09-02T01:54:03;12.60;99.90
16327;DHT22;34812;49.846;9.610;2022-09-02T01:55:04;12.50;99.90
16327;DHT22;34812;49.846;9.610;2022-09-02T01:56:06;12.50;99.90
16327;DHT22;34812;49.846;9.610;2022-09-02T01:57:07;12.40;99.90
16327;DHT22;34812;49.846;9.610;2022-09-02T01:58:09;12.40;99.90
16327;DHT22;34812;49.846;9.610;2022-09-02T01:59:10;12.30;99.90
16327;DHT22;34812;49.846;9.610;2022-09-02T02:00:17;12.30;99.90
16327;DHT22;34812;49.846;9.610;2022-09-02T02:01:18;12.30;99.90
16327;DHT22;34812;49.846;9.610;2022-09-02T02:02:21;12.20;99.90
16327;DHT22;34812;49.846;9.610;2022-09-02T02:03:21;12.10;99.90
16327;DHT22;34812;49.846;9.610;2022-09-02T02:04:24;12.10;99.90
16327;DHT22;34812;49.846;9.610;2022-09-02T02:05:25;12.10;99.90
16327;DHT22;34812;49.846;9.610;2022-09-02T02:06:27;12.10;99.90
16327;DHT22;34812;49.846;9.610;2022-09-02T02:07:28;12.10;99.90
16327;DHT22;34812;49.846;9.610;2022-09-02T02:08:31;12.00;99.90
16327;DHT22;34812;49.846;9.610;2022-09-02T02:09:32;12.00;99.90
16327;DHT22;34812;49.846;9.610;2022-09-02T02:10:34;11.90;99.90
16327;DHT22;34812;49.846;9.610;2022-09-02T02:11:35;11.90;99.90
16327;DHT22;34812;49.846;9.610;2022-09-02T02:12:38;11.90;99.90
16327;DHT22;34812;49.846;9.610;2022-09-02T02:13:39;11.90;99.90
16327;DHT22;34812;49.846;9.610;2022-09-02T02:14:41;11.90;99.90
16327;DHT22;34812;49.846;9.610;2022-09-02T02:15:42;11.80;99.90
16327;DHT22;34812;49.846;9.610;2022-09-02T02:16:44;11.90;99.90
16327;DHT22;34812;49.846;9.610;2022-09-02T02:17:45;11.90;99.90
16327;DHT22;34812;49.846;9.610;2022-09-02T02:18:47;11.80;99.90
16327;DHT22;34812;49.846;9.610;2022-09-02T02:19:48;11.80;99.90
16327;DHT22;34812;49.846;9.610;2022-09-02T02:20:49;11.80;99.90
16327;DHT22;34812;49.846;9.610;2022-09-02T02:21:50;11.80;99.90
16327;DHT22;34812;49.846;9.610;2022-09-02T02:22:52;11.90;99.90
16327;DHT22;34812;49.846;9.610;2022-09-02T02:23:54;11.90;99.90
16327;DHT22;34812;49.846;9.610;2022-09-02T02:24:56;12.00;99.90
16327;DHT22;34812;49.846;9.610;2022-09-02T02:25:57;12.00;99.90
16327;DHT22;34812;49.846;9.610;2022-09-02T02:26:58;12.10;99.90
16327;DHT22;34812;49.846;9.610;2022-09-02T02:27:59;12.10;99.90
16327;DHT22;34812;49.846;9.610;2022-09-02T02:29:01;12.10;99.90
16327;DHT22;34812;49.846;9.610;2022-09-02T02:30:03;12.10;99.90
16327;DHT22;34812;49.846;9.610;2022-09-02T02:31:05;12.20;99.90
16327;DHT22;34812;49.846;9.610;2022-09-02T02:32:06;12.20;99.90
16327;DHT22;34812;49.846;9.610;2022-09-02T02:33:08;12.20;99.90
16327;DHT22;34812;49.846;9.610;2022-09-02T02:34:09;12.20;99.90
16327;DHT22;34812;49.846;9.610;2022-09-02T02:35:12;12.20;99.90
16327;DHT22;34812;49.846;9.610;2022-09-02T02:36:13;12.20;99.90
16327;DHT22;34812;49.846;9.610;2022-09-02T02:37:15;12.20;99.90
16327;DHT22;34812;49.846;9.610;2022-09-02T02:38:16;12.10;99.90
16327;DHT22;34812;49.846;9.610;2022-09-02T02:39:19;12.10;99.90
16327;DHT22;34812;49.846;9.610;2022-09-02T02:40:22;12.00;99.90
16327;DHT22;34812;49.846;9.610;2022-09-02T02:41:24;12.00;99.90
16327;DHT22;34812;49.846;9.610;2022-09-02T02:42:25;11.90;99.90
16327;DHT22;34812;49.846;9.610;2022-09-02T02:43:27;11.90;99.90
16327;DHT22;34812;49.846;9.610;2022-09-02T02:44:28;11.80;99.90
16327;DHT22;34812;49.846;9.610;2022-09-02T02:45:30;11.80;99.90
16327;DHT22;34812;49.846;9.610;2022-09-02T02:46:31;11.70;99.90
16327;DHT22;34812;49.846;9.610;2022-09-02T02:47:37;11.70;99.90
16327;DHT22;34812;49.846;9.610;2022-09-02T02:48:38;11.70;99.90
16327;DHT22;34812;49.846;9.610;2022-09-02T02:49:41;11.60;99.90
16327;DHT22;34812;49.846;9.610;2022-09-02T02:50:43;11.60;99.90
16327;DHT22;34812;49.846;9.610;2022-09-02T02:51:44;11.60;99.90
16327;DHT22;34812;49.846;9.610;2022-09-02T02:52:45;11.60;99.90
16327;DHT22;34812;49.846;9.610;2022-09-02T02:53:48;11.60;99.90
16327;DHT22;34812;49.846;9.610;2022-09-02T02:54:50;11.50;99.90
16327;DHT22;34812;49.846;9.610;2022-09-02T02:55:51;11.50;99.90
16327;DHT22;34812;49.846;9.610;2022-09-02T02:56:52;11.40;99.90
16327;DHT22;34812;49.846;9.610;2022-09-02T02:57:54;11.40;99.90
16327;DHT22;34812;49.846;9.610;2022-09-02T02:58:55;11.40;99.90
16327;DHT22;34812;49.846;9.610;2022-09-02T02:59:57;11.30;99.90
16327;DHT22;34812;49.846;9.610;2022-09-02T03:00:58;11.30;99.90
16327;DHT22;34812;49.846;9.610;2022-09-02T03:02:00;11.30;99.90
16327;DHT22;34812;49.846;9.610;2022-09-02T03:03:03;11.30;99.90
16327;DHT22;34812;49.846;9.610;2022-09-02T03:04:06;11.30;99.90
16327;DHT22;34812;49.846;9.610;2022-09-02T03:05:09;11.20;99.90
16327;DHT22;34812;49.846;9.610;2022-09-02T03:06:11;11.20;99.90
16327;DHT22;34812;49.846;9.610;2022-09-02T03:07:12;11.20;99.90
16327;DHT22;34812;49.846;9.610;2022-09-02T03:08:15;11.20;99.90
16327;DHT22;34812;49.846;9.610;2022-09-02T03:09:16;11.10;99.90
16327;DHT22;34812;49.846;9.610;2022-09-02T03:10:21;11.20;99.90
16327;DHT22;34812;49.846;9.610;2022-09-02T03:11:23;11.10;99.90
16327;DHT22;34812;49.846;9.610;2022-09-02T03:12:28;11.10;99.90
16327;DHT22;34812;49.846;9.610;2022-09-02T03:13:29;11.10;99.90
16327;DHT22;34812;49.846;9.610;2022-09-02T03:14:31;11.00;99.90
16327;DHT22;34812;49.846;9.610;2022-09-02T03:15:32;11.00;99.90
16327;DHT22;34812;49.846;9.610;2022-09-02T03:16:34;11.00;99.90
16327;DHT22;34812;49.846;9.610;2022-09-02T03:17:35;11.00;99.90
16327;DHT22;34812;49.846;9.610;2022-09-02T03:18:37;11.00;99.90
16327;DHT22;34812;49.846;9.610;2022-09-02T03:19:38;10.90;99.90
16327;DHT22;34812;49.846;9.610;2022-09-02T03:20:40;10.90;99.90
16327;DHT22;34812;49.846;9.610;2022-09-02T03:21:42;10.90;99.90
16327;DHT22;34812;49.846;9.610;2022-09-02T03:22:44;10.80;99.90
16327;DHT22;34812;49.846;9.610;2022-09-02T03:23:47;10.80;99.90
16327;DHT22;34812;49.846;9.610;2022-09-02T03:24:49;10.90;99.90
16327;DHT22;34812;49.846;9.610;2022-09-02T03:25:51;10.90;99.90
16327;DHT22;34812;49.846;9.610;2022-09-02T03:26:52;10.90;99.90
16327;DHT22;34812;49.846;9.610;2022-09-02T03:27:54;10.90;99.90
16327;DHT22;34812;49.846;9.610;2022-09-02T03:28:56;10.90;99.90
16327;DHT22;34812;49.846;9.610;2022-09-02T03:29:56;10.80;99.90
16327;DHT22;34812;49.846;9.610;2022-09-02T03:30:59;10.80;99.90
16327;DHT22;34812;49.846;9.610;2022-09-02T03:32:00;10.80;99.90
16327;DHT22;34812;49.846;9.610;2022-09-02T03:33:03;10.80;99.90
16327;DHT22;34812;49.846;9.610;2022-09-02T03:34:04;10.80;99.90
16327;DHT22;34812;49.846;9.610;2022-09-02T03:35:10;10.80;99.90
16327;DHT22;34812;49.846;9.610;2022-09-02T03:36:19;10.80;99.90
16327;DHT22;34812;49.846;9.610;2022-09-02T03:37:21;10.80;99.90
16327;DHT22;34812;49.846;9.610;2022-09-02T03:38:21;10.80;99.90
16327;DHT22;34812;49.846;9.610;2022-09-02T03:39:23;10.90;99.90
16327;DHT22;34812;49.846;9.610;2022-09-02T03:40:25;10.90;99.90
16327;DHT22;34812;49.846;9.610;2022-09-02T03:41:29;10.90;99.90
16327;DHT22;34812;49.846;9.610;2022-09-02T03:42:29;10.90;99.90
16327;DHT22;34812;49.846;9.610;2022-09-02T03:43:31;10.80;99.90
16327;DHT22;34812;49.846;9.610;2022-09-02T03:44:32;10.80;99.90
16327;DHT22;34812;49.846;9.610;2022-09-02T03:45:34;10.80;99.90
16327;DHT22;34812;49.846;9.610;2022-09-02T03:46:35;10.70;99.90
16327;DHT22;34812;49.846;9.610;2022-09-02T03:47:37;10.70;99.90
16327;DHT22;34812;49.846;9.610;2022-09-02T03:48:43;10.70;99.90
16327;DHT22;34812;49.846;9.610;2022-09-02T03:49:45;10.70;99.90
16327;DHT22;34812;49.846;9.610;2022-09-02T03:50:45;10.60;99.90
16327;DHT22;34812;49.846;9.610;2022-09-02T03:51:47;10.50;99.90
16327;DHT22;34812;49.846;9.610;2022-09-02T03:52:48;10.50;99.90
16327;DHT22;34812;49.846;9.610;2022-09-02T03:53:50;10.50;99.90
16327;DHT22;34812;49.846;9.610;2022-09-02T03:54:51;10.40;99.90
16327;DHT22;34812;49.846;9.610;2022-09-02T03:55:53;10.40;99.90
16327;DHT22;34812;49.846;9.610;2022-09-02T03:56:55;10.40;99.90
16327;DHT22;34812;49.846;9.610;2022-09-02T03:57:58;10.40;99.90
16327;DHT22;34812;49.846;9.610;2022-09-02T03:58:59;10.40;99.90
16327;DHT22;34812;49.846;9.610;2022-09-02T04:00:01;10.50;99.90
16327;DHT22;34812;49.846;9.610;2022-09-02T04:01:03;10.50;99.90
16327;DHT22;34812;49.846;9.610;2022-09-02T04:02:05;10.50;99.90
16327;DHT22;34812;49.846;9.610;2022-09-02T04:03:06;10.50;99.90
16327;DHT22;34812;49.846;9.610;2022-09-02T04:04:08;10.50;99.90
16327;DHT22;34812;49.846;9.610;2022-09-02T04:05:09;10.50;99.90
16327;DHT22;34812;49.846;9.610;2022-09-02T04:06:13;10.50;99.90
16327;DHT22;34812;49.846;9.610;2022-09-02T04:07:14;10.40;99.90
16327;DHT22;34812;49.846;9.610;2022-09-02T04:08:16;10.40;99.90
16327;DHT22;34812;49.846;9.610;2022-09-02T04:09:17;10.40;99.90
16327;DHT22;34812;49.846;9.610;2022-09-02T04:10:20;10.30;99.90
16327;DHT22;34812;49.846;9.610;2022-09-02T04:11:21;10.20;99.90
16327;DHT22;34812;49.846;9.610;2022-09-02T04:12:24;10.10;99.90
16327;DHT22;34812;49.846;9.610;2022-09-02T04:13:25;10.10;99.90
16327;DHT22;34812;49.846;9.610;2022-09-02T04:14:27;10.10;99.90
16327;DHT22;34812;49.846;9.610;2022-09-02T04:15:28;10.20;99.90
16327;DHT22;34812;49.846;9.610;2022-09-02T04:16:30;10.10;99.90
16327;DHT22;34812;49.846;9.610;2022-09-02T04:17:30;10.10;99.90
16327;DHT22;34812;49.846;9.610;2022-09-02T04:18:32;10.10;99.90
16327;DHT22;34812;49.846;9.610;2022-09-02T04:19:33;10.10;99.90
16327;DHT22;34812;49.846;9.610;2022-09-02T04:20:37;10.10;99.90
16327;DHT22;34812;49.846;9.610;2022-09-02T04:21:39;10.10;99.90
16327;DHT22;34812;49.846;9.610;2022-09-02T04:22:41;10.00;99.90
16327;DHT22;34812;49.846;9.610;2022-09-02T04:23:41;10.00;99.90
16327;DHT22;34812;49.846;9.610;2022-09-02T04:24:44;10.00;99.90
16327;DHT22;34812;49.846;9.610;2022-09-02T04:25:44;9.90;99.90
16327;DHT22;34812;49.846;9.610;2022-09-02T04:26:46;9.90;99.90
16327;DHT22;34812;49.846;9.610;2022-09-02T04:27:48;9.90;99.90
16327;DHT22;34812;49.846;9.610;2022-09-02T04:28:50;9.80;99.90
16327;DHT22;34812;49.846;9.610;2022-09-02T04:29:53;9.80;99.90
16327;DHT22;34812;49.846;9.610;2022-09-02T04:30:55;9.80;99.90
16327;DHT22;34812;49.846;9.610;2022-09-02T04:31:56;9.80;99.90
16327;DHT22;34812;49.846;9.610;2022-09-02T04:32:58;9.70;99.90
16327;DHT22;34812;49.846;9.610;2022-09-02T04:33:59;9.70;99.90
16327;DHT22;34812;49.846;9.610;2022-09-02T04:35:01;9.70;99.90
16327;DHT22;34812;49.846;9.610;2022-09-02T04:36:04;9.70;99.90
16327;DHT22;34812;49.846;9.610;2022-09-02T04:37:05;9.60;99.90
16327;DHT22;34812;49.846;9.610;2022-09-02T04:38:07;9.60;99.90
16327;DHT22;34812;49.846;9.610;2022-09-02T04:39:08;9.60;99.90
16327;DHT22;34812;49.846;9.610;2022-09-02T04:40:10;9.60;99.90
16327;DHT22;34812;49.846;9.610;2022-09-02T04:41:14;9.60;99.90
16327;DHT22;34812;49.846;9.610;2022-09-02T04:42:16;9.60;99.90
16327;DHT22;34812;49.846;9.610;2022-09-02T04:43:18;9.60;99.90
16327;DHT22;34812;49.846;9.610;2022-09-02T04:44:19;9.70;99.90
16327;DHT22;34812;49.846;9.610;2022-09-02T04:45:20;9.70;99.90
16327;DHT22;34812;49.846;9.610;2022-09-02T04:46:22;9.70;99.90
16327;DHT22;34812;49.846;9.610;2022-09-02T04:47:24;9.70;99.90
16327;DHT22;34812;49.846;9.610;2022-09-02T04:48:27;9.70;99.90
16327;DHT22;34812;49.846;9.610;2022-09-02T04:49:27;9.70;99.90
16327;DHT22;34812;49.846;9.610;2022-09-02T04:50:32;9.70;99.90
16327;DHT22;34812;49.846;9.610;2022-09-02T04:51:34;9.70;99.90
16327;DHT22;34812;49.846;9.610;2022-09-02T04:52:36;9.70;99.90
16327;DHT22;34812;49.846;9.610;2022-09-02T04:53:37;9.70;99.90
16327;DHT22;34812;49.846;9.610;2022-09-02T04:54:39;9.80;99.90
16327;DHT22;34812;49.846;9.610;2022-09-02T04:55:42;9.80;99.90
16327;DHT22;34812;49.846;9.610;2022-09-02T04:56:42;9.80;99.90
16327;DHT22;34812;49.846;9.610;2022-09-02T04:57:44;9.80;99.90
16327;DHT22;34812;49.846;9.610;2022-09-02T04:58:47;9.80;99.90
16327;DHT22;34812;49.846;9.610;2022-09-02T04:59:49;9.80;99.90
16327;DHT22;34812;49.846;9.610;2022-09-02T05:00:50;9.80;99.90
16327;DHT22;34812;49.846;9.610;2022-09-02T05:01:52;9.80;99.90
16327;DHT22;34812;49.846;9.610;2022-09-02T05:02:53;9.80;99.90
16327;DHT22;34812;49.846;9.610;2022-09-02T05:03:55;9.80;99.90
16327;DHT22;34812;49.846;9.610;2022-09-02T05:04:56;9.90;99.90
16327;DHT22;34812;49.846;9.610;2022-09-02T05:05:59;9.90;99.90
16327;DHT22;34812;49.846;9.610;2022-09-02T05:07:00;10.00;99.90
16327;DHT22;34812;49.846;9.610;2022-09-02T05:08:02;10.00;99.90
16327;DHT22;34812;49.846;9.610;2022-09-02T05:09:04;10.10;99.90
16327;DHT22;34812;49.846;9.610;2022-09-02T05:10:07;10.00;99.90
16327;DHT22;34812;49.846;9.610;2022-09-02T05:11:09;10.00;99.90
16327;DHT22;34812;49.846;9.610;2022-09-02T05:12:11;10.10;99.90
16327;DHT22;34812;49.846;9.610;2022-09-02T05:13:12;10.10;99.90
16327;DHT22;34812;49.846;9.610;2022-09-02T05:14:15;10.10;99.90
16327;DHT22;34812;49.846;9.610;2022-09-02T05:15:16;10.10;99.90
16327;DHT22;34812;49.846;9.610;2022-09-02T05:16:20;10.20;99.90
16327;DHT22;34812;49.846;9.610;2022-09-02T05:17:22;10.10;99.90
16327;DHT22;34812;49.846;9.610;2022-09-02T05:18:23;10.20;99.90
16327;DHT22;34812;49.846;9.610;2022-09-02T05:19:24;10.20;99.90
16327;DHT22;34812;49.846;9.610;2022-09-02T05:20:26;10.30;99.90
16327;DHT22;34812;49.846;9.610;2022-09-02T05:21:28;10.30;99.90
16327;DHT22;34812;49.846;9.610;2022-09-02T05:22:30;10.30;99.90
16327;DHT22;34812;49.846;9.610;2022-09-02T05:23:33;10.40;99.90
16327;DHT22;34812;49.846;9.610;2022-09-02T05:24:34;10.40;99.90
16327;DHT22;34812;49.846;9.610;2022-09-02T05:25:36;10.40;99.90
16327;DHT22;34812;49.846;9.610;2022-09-02T05:26:37;10.40;99.90
16327;DHT22;34812;49.846;9.610;2022-09-02T05:27:39;10.40;99.90
16327;DHT22;34812;49.846;9.610;2022-09-02T05:28:41;10.50;99.90
16327;DHT22;34812;49.846;9.610;2022-09-02T05:29:44;10.50;99.90
16327;DHT22;34812;49.846;9.610;2022-09-02T05:30:45;10.50;99.90
16327;DHT22;34812;49.846;9.610;2022-09-02T05:31:47;10.50;99.90
16327;DHT22;34812;49.846;9.610;2022-09-02T05:32:48;10.50;99.90
16327;DHT22;34812;49.846;9.610;2022-09-02T05:33:50;10.60;99.90
16327;DHT22;34812;49.846;9.610;2022-09-02T05:34:51;10.60;99.90
16327;DHT22;34812;49.846;9.610;2022-09-02T05:35:52;10.60;99.90
16327;DHT22;34812;49.846;9.610;2022-09-02T05:36:53;10.70;99.90
16327;DHT22;34812;49.846;9.610;2022-09-02T05:37:56;10.70;99.90
16327;DHT22;34812;49.846;9.610;2022-09-02T05:38:57;10.70;99.90
16327;DHT22;34812;49.846;9.610;2022-09-02T05:39:59;10.70;99.90
16327;DHT22;34812;49.846;9.610;2022-09-02T05:41:03;10.80;99.90
16327;DHT22;34812;49.846;9.610;2022-09-02T05:42:07;10.90;99.90
16327;DHT22;34812;49.846;9.610;2022-09-02T05:43:08;11.10;99.90
16327;DHT22;34812;49.846;9.610;2022-09-02T05:44:10;11.10;99.90
16327;DHT22;34812;49.846;9.610;2022-09-02T05:45:13;11.20;99.90
16327;DHT22;34812;49.846;9.610;2022-09-02T05:46:17;11.40;99.90
16327;DHT22;34812;49.846;9.610;2022-09-02T05:47:18;11.50;99.90
16327;DHT22;34812;49.846;9.610;2022-09-02T05:48:19;11.60;99.90
16327;DHT22;34812;49.846;9.610;2022-09-02T05:49:39;11.70;99.90
16327;DHT22;34812;49.846;9.610;2022-09-02T05:50:40;11.80;99.90
16327;DHT22;34812;49.846;9.610;2022-09-02T05:51:43;11.90;99.90
16327;DHT22;34812;49.846;9.610;2022-09-02T05:52:49;11.90;99.90
16327;DHT22;34812;49.846;9.610;2022-09-02T05:53:52;11.90;99.90
16327;DHT22;34812;49.846;9.610;2022-09-02T05:54:53;12.00;99.90
16327;DHT22;34812;49.846;9.610;2022-09-02T05:55:55;12.10;99.90
16327;DHT22;34812;49.846;9.610;2022-09-02T05:56:59;12.10;99.90
16327;DHT22;34812;49.846;9.610;2022-09-02T05:58:01;12.20;99.90
16327;DHT22;34812;49.846;9.610;2022-09-02T05:59:01;12.20;99.90
16327;DHT22;34812;49.846;9.610;2022-09-02T06:00:04;12.30;99.90
16327;DHT22;34812;49.846;9.610;2022-09-02T06:01:08;12.30;99.90
16327;DHT22;34812;49.846;9.610;2022-09-02T06:02:11;12.40;99.90
16327;DHT22;34812;49.846;9.610;2022-09-02T06:03:12;12.40;99.90
16327;DHT22;34812;49.846;9.610;2022-09-02T06:04:14;12.40;99.90
16327;DHT22;34812;49.846;9.610;2022-09-02T06:05:15;12.40;99.90
16327;DHT22;34812;49.846;9.610;2022-09-02T06:06:18;12.50;99.90
16327;DHT22;34812;49.846;9.610;2022-09-02T06:07:21;12.50;99.90
16327;DHT22;34812;49.846;9.610;2022-09-02T06:08:23;12.50;99.90
16327;DHT22;34812;49.846;9.610;2022-09-02T06:09:24;12.60;99.90
16327;DHT22;34812;49.846;9.610;2022-09-02T06:10:26;12.60;99.90
16327;DHT22;34812;49.846;9.610;2022-09-02T06:11:27;12.70;99.90
16327;DHT22;34812;49.846;9.610;2022-09-02T06:12:29;12.70;99.90
16327;DHT22;34812;49.846;9.610;2022-09-02T06:13:33;12.70;99.90
16327;DHT22;34812;49.846;9.610;2022-09-02T06:14:35;12.70;99.90
16327;DHT22;34812;49.846;9.610;2022-09-02T06:15:40;12.80;99.90
16327;DHT22;34812;49.846;9.610;2022-09-02T06:16:45;12.80;99.90
16327;DHT22;34812;49.846;9.610;2022-09-02T06:17:47;12.90;99.90
16327;DHT22;34812;49.846;9.610;2022-09-02T06:18:48;12.90;99.90
16327;DHT22;34812;49.846;9.610;2022-09-02T06:19:50;12.90;99.90
16327;DHT22;34812;49.846;9.610;2022-09-02T06:20:51;12.90;99.90
16327;DHT22;34812;49.846;9.610;2022-09-02T06:21:53;13.00;99.90
16327;DHT22;34812;49.846;9.610;2022-09-02T06:22:54;13.00;99.90
16327;DHT22;34812;49.846;9.610;2022-09-02T06:23:55;13.00;99.90
16327;DHT22;34812;49.846;9.610;2022-09-02T06:24:56;13.10;99.90
16327;DHT22;34812;49.846;9.610;2022-09-02T06:25:58;13.10;99.90
16327;DHT22;34812;49.846;9.610;2022-09-02T06:26:59;13.10;99.90
16327;DHT22;34812;49.846;9.610;2022-09-02T06:28:01;13.20;99.90
16327;DHT22;34812;49.846;9.610;2022-09-02T06:29:02;13.20;99.90
16327;DHT22;34812;49.846;9.610;2022-09-02T06:30:05;13.20;99.90
16327;DHT22;34812;49.846;9.610;2022-09-02T06:31:08;13.20;99.90
16327;DHT22;34812;49.846;9.610;2022-09-02T06:32:11;13.30;99.90
16327;DHT22;34812;49.846;9.610;2022-09-02T06:33:12;13.30;99.90
16327;DHT22;34812;49.846;9.610;2022-09-02T06:34:16;13.30;99.90